Time;durP1;ratioP1;P1;durP2;ratioP2;P2;SDS_P1;SDS_P2;PMS_P1;PMS_P2;Temp;Humidity;BMP_temperature;BMP_pressure;BME280_temperature;BME280_humidity;BME280_pressure;Samples;Min_cycle;Max_cycle;Signal;HPM_P1;HPM_P2
2023/08/21 00:01:58;;;;;;;0.10;0.10;;;;;;;25.52;59.79;101391.84;4924238;28;20544;-92
2023/08/21 00:04:23;;;;;;;0.17;0.17;;;;;;;25.37;60.41;101382.78;4924309;28;20065;-92
2023/08/21 00:06:49;;;;;;;0.20;0.20;;;;;;;25.39;60.74;101392.25;4924222;28;20031;-93
2023/08/21 00:09:14;;;;;;;0.13;0.13;;;;;;;25.38;60.58;101395.03;4940164;28;20485;-92
2023/08/21 00:11:40;;;;;;;0.10;0.10;;;;;;;25.30;60.76;101395.81;4924394;28;20030;-92
2023/08/21 00:14:06;;;;;;;0.10;0.10;;;;;;;25.22;61.25;101394.91;4924155;28;20039;-92
2023/08/21 00:16:31;;;;;;;0.10;0.10;;;;;;;25.17;61.34;101390.03;4924552;28;20034;-92
2023/08/21 00:18:57;;;;;;;0.20;0.20;;;;;;;25.15;61.26;101387.53;4940140;28;20130;-93
2023/08/21 00:21:22;;;;;;;0.20;0.20;;;;;;;25.20;61.18;101397.69;4924259;28;20027;-93
2023/08/21 00:23:48;;;;;;;0.10;0.10;;;;;;;25.23;61.45;101397.38;4940275;28;20035;-93
2023/08/21 00:26:13;;;;;;;0.20;0.20;;;;;;;25.19;61.40;101401.34;4939908;28;20027;-92
2023/08/21 00:28:39;;;;;;;0.10;0.10;;;;;;;25.13;61.23;101393.97;4939580;28;20034;-92
2023/08/21 00:31:05;;;;;;;0.20;0.20;;;;;;;25.23;61.01;101402.69;4923969;28;20054;-91
2023/08/21 00:33:31;;;;;;;0.10;0.10;;;;;;;25.25;60.76;101408.66;4924082;28;20038;-91
2023/08/21 00:35:57;;;;;;;0.10;0.10;;;;;;;25.24;60.97;101412.28;4924303;28;20034;-92
2023/08/21 00:38:23;;;;;;;0.20;0.20;;;;;;;24.95;62.04;101385.16;4924143;28;20027;-93
2023/08/21 00:40:48;;;;;;;0.10;0.10;;;;;;;24.91;63.29;101394.41;4924275;28;20098;-93
2023/08/21 00:43:14;;;;;;;0.10;0.10;;;;;;;24.97;62.94;101399.06;4939353;28;20030;-92
2023/08/21 00:45:39;;;;;;;0.10;0.10;;;;;;;25.07;62.76;101402.50;4939711;28;20035;-92
2023/08/21 00:48:05;;;;;;;0.20;0.20;;;;;;;25.02;62.99;101404.78;4923824;28;20038;-92
2023/08/21 00:50:31;;;;;;;0.10;0.10;;;;;;;25.06;62.69;101419.38;4924133;28;20035;-94
2023/08/21 00:52:56;;;;;;;0.20;0.20;;;;;;;25.04;62.72;101395.72;4923796;28;20085;-92
2023/08/21 00:55:22;;;;;;;0.10;0.10;;;;;;;24.94;63.73;101416.09;4924033;28;20034;-91
2023/08/21 00:57:47;;;;;;;0.10;0.10;;;;;;;24.67;64.20;101377.25;4923586;28;20705;-93
2023/08/21 01:00:13;;;;;;;0.10;0.10;;;;;;;24.76;64.04;101389.59;4923900;28;20059;-92
2023/08/21 01:02:38;;;;;;;0.10;0.10;;;;;;;24.71;64.86;101407.75;4923909;28;20394;-91
2023/08/21 01:05:05;;;;;;;0.10;0.10;;;;;;;24.86;64.30;101416.00;4924188;28;20489;-91
2023/08/21 01:07:32;;;;;;;0.20;0.20;;;;;;;24.78;64.46;101424.69;4923545;28;20039;-92
2023/08/21 01:10:04;;;;;;;0.10;0.10;;;;;;;24.80;64.50;101422.72;4924127;28;20489;-92
2023/08/21 01:12:42;;;;;;;0.20;0.20;;;;;;;24.80;64.28;101419.25;4939638;28;20115;-93
2023/08/21 01:15:08;;;;;;;0.20;0.20;;;;;;;24.71;64.65;101409.56;4939605;28;20041;-92
2023/08/21 01:17:35;;;;;;;0.10;0.10;;;;;;;24.80;64.17;101427.19;4924251;28;20038;-92
2023/08/21 01:20:00;;;;;;;0.20;0.20;;;;;;;24.84;63.61;101425.91;4923948;28;20031;-93
2023/08/21 01:22:36;;;;;;;0.10;0.10;;;;;;;24.84;63.23;101420.63;4923764;28;20039;-94
2023/08/21 01:25:02;;;;;;;0.20;0.20;;;;;;;24.80;62.99;101417.44;4924040;28;20031;-93
2023/08/21 01:27:27;;;;;;;0.10;0.10;;;;;;;24.71;63.53;101415.69;4923606;28;20184;-93
2023/08/21 01:29:53;;;;;;;0.10;0.10;;;;;;;24.38;64.30;101389.78;4925473;28;20058;-92
2023/08/21 01:32:27;;;;;;;0.20;0.20;;;;;;;24.51;64.01;101408.81;4927169;28;20115;-91
2023/08/21 01:34:54;;;;;;;0.20;0.20;;;;;;;24.57;63.74;101411.69;4927461;28;20122;-91
2023/08/21 01:37:19;;;;;;;0.10;0.10;;;;;;;24.56;63.28;101415.31;4927181;28;20034;-92
2023/08/21 01:39:45;;;;;;;0.20;0.20;;;;;;;24.39;64.15;101391.50;4943060;28;20026;-91
2023/08/21 01:42:11;;;;;;;0.13;0.13;;;;;;;24.58;63.80;101420.47;4926774;28;20030;-93
2023/08/21 01:44:36;;;;;;;0.10;0.10;;;;;;;24.58;63.78;101423.97;4943176;28;20034;-93
2023/08/21 01:47:01;;;;;;;0.20;0.20;;;;;;;24.59;64.00;101436.22;4942813;28;20050;-92
2023/08/21 01:49:27;;;;;;;0.20;0.20;;;;;;;24.53;64.17;101428.03;4926993;28;20034;-93
2023/08/21 01:51:53;;;;;;;0.10;0.10;;;;;;;24.47;63.88;101425.94;4942926;28;20481;-94
2023/08/21 01:54:18;;;;;;;0.13;0.13;;;;;;;24.56;63.51;101419.78;4927115;28;20469;-92
2023/08/21 01:56:43;;;;;;;0.10;0.10;;;;;;;24.62;62.76;101424.50;4926313;28;20031;-93
2023/08/21 01:59:09;;;;;;;0.10;0.10;;;;;;;24.61;62.97;101428.13;4926965;28;20027;-93
2023/08/21 02:01:34;;;;;;;0.20;0.20;;;;;;;24.58;63.05;101425.75;4926680;28;20034;-91
2023/08/21 02:04:00;;;;;;;0.10;0.10;;;;;;;24.38;63.40;101413.59;4942209;28;20050;-93
2023/08/21 02:06:25;;;;;;;0.10;0.10;;;;;;;24.36;63.72;101429.63;4926624;28;20124;-92
2023/08/21 02:08:51;;;;;;;0.20;0.20;;;;;;;24.35;63.90;101427.13;4926622;28;20027;-91
2023/08/21 02:11:16;;;;;;;0.20;0.20;;;;;;;24.30;63.92;101424.91;4926214;28;20544;-92
2023/08/21 02:13:42;;;;;;;0.10;0.10;;;;;;;24.34;63.80;101425.47;4926553;28;20390;-92
2023/08/21 02:16:07;;;;;;;0.10;0.10;;;;;;;24.26;64.07;101437.56;4926801;28;20129;-93
2023/08/21 02:18:33;;;;;;;0.10;0.10;;;;;;;24.29;63.92;101431.16;4941863;28;20031;-94
2023/08/21 02:21:01;;;;;;;0.10;0.10;;;;;;;24.27;64.15;101431.28;4942137;28;20038;-92
2023/08/21 02:23:26;;;;;;;0.10;0.10;;;;;;;24.15;64.40;101428.97;4926398;28;20039;-92
2023/08/21 02:25:52;;;;;;;0.10;0.10;;;;;;;24.12;64.75;101445.13;4926054;28;20460;-94
2023/08/21 02:28:17;;;;;;;0.10;0.10;;;;;;;24.05;65.17;101439.56;4925806;28;20042;-91
2023/08/21 02:30:43;;;;;;;0.10;0.10;;;;;;;24.09;65.07;101454.19;4926029;28;20038;-92
2023/08/21 02:33:08;;;;;;;0.20;0.20;;;;;;;24.06;65.16;101433.28;4926169;28;20425;-93
2023/08/21 02:35:34;;;;;;;0.20;0.20;;;;;;;23.97;65.34;101432.34;4926039;28;20035;-93
2023/08/21 02:37:59;;;;;;;0.10;0.10;;;;;;;24.01;65.56;101438.19;4941817;28;20065;-92
2023/08/21 02:40:25;;;;;;;0.10;0.10;;;;;;;23.94;65.53;101435.28;4925954;28;20034;-91
2023/08/21 02:42:50;;;;;;;0.10;0.10;;;;;;;23.99;65.69;101440.13;4941732;28;20492;-92
2023/08/21 02:45:16;;;;;;;0.17;0.17;;;;;;;23.98;65.18;101435.81;4918328;28;20097;-95
2023/08/21 02:47:41;;;;;;;0.10;0.10;;;;;;;24.06;64.86;101430.66;4941802;28;20026;-94
2023/08/21 02:50:08;;;;;;;0.10;0.10;;;;;;;23.88;65.38;101429.72;4941620;28;20197;-92
2023/08/21 02:52:33;;;;;;;0.10;0.10;;;;;;;23.92;65.11;101423.19;4941655;28;20067;-93
2023/08/21 02:54:59;;;;;;;0.20;0.20;;;;;;;23.88;65.52;101435.84;4941602;28;20035;-93
2023/08/21 02:57:25;;;;;;;0.13;0.13;;;;;;;23.78;66.14;101439.47;4925692;28;20026;-94
2023/08/21 02:59:50;;;;;;;0.10;0.10;;;;;;;23.72;66.04;101436.44;4925292;28;20031;-93
2023/08/21 03:02:16;;;;;;;0.10;0.10;;;;;;;23.72;66.43;101447.00;4925621;28;20030;-92
2023/08/21 03:04:41;;;;;;;0.10;0.10;;;;;;;23.84;65.77;101438.91;5464014;23;20071;-92
2023/08/21 03:07:07;;;;;;;0.10;0.10;;;;;;;23.82;65.82;101441.69;4903434;29;20035;-92
2023/08/21 03:09:32;;;;;;;0.10;0.10;;;;;;;23.83;65.85;101432.78;4891265;29;20044;-92
2023/08/21 03:11:58;;;;;;;0.10;0.10;;;;;;;23.98;65.44;101451.66;4888116;29;20031;-92
2023/08/21 03:14:25;;;;;;;0.20;0.20;;;;;;;23.96;65.22;101432.50;4888259;29;20027;-93
2023/08/21 03:16:50;;;;;;;0.20;0.20;;;;;;;24.03;64.50;101433.59;4887874;29;20035;-92
2023/08/21 03:19:16;;;;;;;0.20;0.20;;;;;;;24.10;64.45;101442.63;4888130;29;20087;-92
2023/08/21 03:21:41;;;;;;;0.20;0.20;;;;;;;24.02;64.61;101432.75;4888349;29;20918;-93
2023/08/21 03:24:07;;;;;;;0.30;0.28;;;;;;;23.91;65.29;101435.56;4888097;29;20047;-93
2023/08/21 03:26:33;;;;;;;0.10;0.10;;;;;;;23.88;65.74;101430.53;4888432;29;20035;-92
2023/08/21 03:28:58;;;;;;;0.20;0.20;;;;;;;23.97;65.24;101444.72;4887831;29;20044;-92
2023/08/21 03:31:23;;;;;;;0.10;0.10;;;;;;;23.98;65.02;101430.53;4887588;29;20059;-93
2023/08/21 03:33:49;;;;;;;0.10;0.10;;;;;;;23.94;64.99;101429.16;4887907;29;20040;-92
2023/08/21 03:36:14;;;;;;;0.20;0.20;;;;;;;24.01;65.14;101435.56;4889919;29;20028;-92
2023/08/21 03:38:40;;;;;;;0.10;0.10;;;;;;;23.90;65.01;101415.41;4887613;29;20044;-93
2023/08/21 03:41:07;;;;;;;0.20;0.20;;;;;;;24.03;64.74;101425.66;4906252;29;20055;-92
2023/08/21 03:43:32;;;;;;;0.20;0.20;;;;;;;24.25;63.90;101429.75;4905798;29;20469;-92
2023/08/21 03:45:58;;;;;;;0.10;0.10;;;;;;;24.20;63.62;101427.56;4906197;29;20031;-92
2023/08/21 03:48:24;;;;;;;0.20;0.20;;;;;;;24.21;63.71;101425.75;4906022;29;20031;-92
2023/08/21 03:50:50;;;;;;;0.13;0.13;;;;;;;24.17;63.68;101430.47;4908871;29;20042;-93
2023/08/21 03:53:16;;;;;;;0.10;0.10;;;;;;;23.88;64.60;101413.84;4913230;29;20054;-92
2023/08/21 03:55:41;;;;;;;0.20;0.20;;;;;;;24.06;64.57;101429.81;4929993;29;20031;-93
2023/08/21 03:58:06;;;;;;;0.20;0.20;;;;;;;24.17;64.26;101427.00;4905374;29;20409;-92
2023/08/21 04:00:32;;;;;;;0.20;0.20;;;;;;;24.10;64.38;101424.13;4907143;29;20028;-91
2023/08/21 04:02:58;;;;;;;0.10;0.10;;;;;;;24.07;65.24;101424.38;4883374;29;20095;-93
2023/08/21 04:05:23;;;;;;;0.10;0.10;;;;;;;24.20;65.81;101422.28;4867965;29;20068;-93
2023/08/21 04:07:49;;;;;;;0.10;0.10;;;;;;;24.37;65.72;101415.41;4892737;29;20051;-90
2023/08/21 04:10:15;;;;;;;0.10;0.10;;;;;;;24.41;63.41;101400.94;4891245;29;20040;-93
2023/08/21 04:12:41;;;;;;;0.20;0.20;;;;;;;24.49;64.53;101424.00;4908646;29;20028;-93
2023/08/21 04:15:07;;;;;;;0.20;0.20;;;;;;;24.55;63.96;101428.69;4902129;29;20027;-93
2023/08/21 04:17:32;;;;;;;0.10;0.10;;;;;;;24.62;63.65;101411.28;4902913;29;20031;-92
2023/08/21 04:19:58;;;;;;;0.20;0.20;;;;;;;24.66;63.51;101425.84;4898266;29;20039;-92
2023/08/21 04:22:23;;;;;;;0.10;0.10;;;;;;;24.81;63.47;101434.97;4883285;29;20036;-90
2023/08/21 04:24:48;;;;;;;0.10;0.10;;;;;;;24.89;62.45;101431.59;4885787;29;20560;-91
2023/08/21 04:27:14;;;;;;;0.10;0.10;;;;;;;24.86;62.71;101435.34;4884167;29;20043;-92
2023/08/21 04:29:40;;;;;;;0.20;0.20;;;;;;;24.91;63.80;101423.50;4892108;29;20549;-89
2023/08/21 04:32:06;;;;;;;0.20;0.20;;;;;;;25.03;62.54;101446.16;4893434;29;20413;-88
2023/08/21 04:34:34;;;;;;;0.10;0.10;;;;;;;25.02;62.19;101433.91;4887622;29;20421;-87
2023/08/21 04:37:00;;;;;;;0.10;0.10;;;;;;;25.05;61.33;101446.84;4897134;29;20032;-88
2023/08/21 04:39:25;;;;;;;0.20;0.20;;;;;;;24.72;62.24;101422.63;4880943;29;20059;-86
2023/08/21 04:41:51;;;;;;;0.10;0.10;;;;;;;24.74;62.75;101441.00;4919741;29;20058;-93
2023/08/21 04:44:16;;;;;;;0.10;0.10;;;;;;;24.71;62.65;101442.13;4905217;29;20027;-92
2023/08/21 04:46:42;;;;;;;0.10;0.10;;;;;;;24.67;62.74;101410.81;4919798;29;20021;-91
2023/08/21 04:49:08;;;;;;;0.10;0.10;;;;;;;24.76;61.63;101424.00;4897356;29;20108;-86
2023/08/21 04:51:34;;;;;;;0.10;0.10;;;;;;;24.82;62.17;101441.94;4897611;29;20031;-86
2023/08/21 04:53:59;;;;;;;0.10;0.10;;;;;;;25.07;61.93;101450.16;4883426;29;20032;-90
2023/08/21 04:56:25;;;;;;;0.10;0.10;;;;;;;25.16;60.83;101449.28;4917385;29;20058;-89
2023/08/21 04:58:52;;;;;;;0.10;0.10;;;;;;;25.24;60.97;101446.72;4900417;29;20429;-91
2023/08/21 05:01:17;;;;;;;0.20;0.20;;;;;;;25.61;61.16;101449.22;4901547;29;20063;-87
2023/08/21 05:03:45;;;;;;;0.20;0.20;;;;;;;25.75;60.26;101450.50;4921984;29;20079;-93
2023/08/21 05:06:10;;;;;;;0.15;0.15;;;;;;;25.98;59.46;101458.81;4926276;29;20048;-89
2023/08/21 05:08:36;;;;;;;0.20;0.20;;;;;;;26.00;59.46;101455.00;4906306;29;20095;-92
2023/08/21 05:11:02;;;;;;;0.20;0.20;;;;;;;26.11;58.83;101466.34;4893861;29;20032;-90
2023/08/21 05:13:43;;;;;;;0.20;0.20;;;;;;;26.14;57.57;101461.53;4914958;29;20484;-93
2023/08/21 05:16:09;;;;;;;0.13;0.13;;;;;;;26.19;58.08;101469.88;4892339;29;20168;-89
2023/08/21 05:18:34;;;;;;;0.20;0.20;;;;;;;26.21;58.68;101467.91;4893605;29;20038;-92
2023/08/21 05:21:00;;;;;;;0.10;0.10;;;;;;;26.27;56.99;101471.75;4909598;29;20035;-91
2023/08/21 05:23:25;;;;;;;0.20;0.20;;;;;;;26.30;57.35;101476.75;4902214;29;20027;-92
2023/08/21 05:25:51;;;;;;;0.20;0.20;;;;;;;26.15;58.82;101472.97;4895787;29;20046;-87
2023/08/21 05:28:35;;;;;;;0.20;0.20;;;;;;;26.26;59.59;101476.22;4916704;29;20036;-86
2023/08/21 05:31:01;;;;;;;0.20;0.20;;;;;;;26.19;57.72;101474.34;4916348;29;20070;-86
2023/08/21 05:33:26;;;;;;;0.20;0.20;;;;;;;26.32;59.05;101488.00;4906164;29;20515;-89
2023/08/21 05:35:51;;;;;;;0.20;0.20;;;;;;;26.35;58.37;101487.72;4894781;29;20039;-91
2023/08/21 05:38:17;;;;;;;0.20;0.20;;;;;;;26.51;58.72;101489.66;4887012;29;20056;-88
2023/08/21 05:40:42;;;;;;;0.20;0.20;;;;;;;26.49;59.24;101486.31;4915597;29;20032;-87
2023/08/21 05:43:08;;;;;;;0.20;0.20;;;;;;;26.64;57.49;101487.38;4900837;29;20020;-91
2023/08/21 05:45:33;;;;;;;0.20;0.20;;;;;;;26.51;59.60;101473.72;4888122;29;20182;-88
2023/08/21 05:47:59;;;;;;;0.10;0.10;;;;;;;26.31;58.34;101455.34;4916698;29;20024;-87
2023/08/21 05:50:24;;;;;;;0.20;0.20;;;;;;;26.56;57.19;101474.09;4904507;29;20054;-88
2023/08/21 05:52:50;;;;;;;0.20;0.20;;;;;;;26.47;58.50;101478.53;4906337;29;20047;-88
2023/08/21 05:55:23;;;;;;;0.20;0.20;;;;;;;26.46;57.94;101487.47;4900955;29;20039;-93
2023/08/21 05:57:48;;;;;;;0.20;0.20;;;;;;;26.57;59.37;101492.50;4921526;29;20561;-90
2023/08/21 06:00:15;;;;;;;0.20;0.20;;;;;;;26.79;57.97;101490.28;4902086;29;20036;-91
2023/08/21 06:02:42;;;;;;;0.20;0.20;;;;;;;26.77;58.30;101494.94;4884813;29;20028;-89
2023/08/21 06:05:09;;;;;;;0.20;0.20;;;;;;;26.82;57.00;101496.09;4885210;29;20118;-90
2023/08/21 06:07:34;;;;;;;0.10;0.10;;;;;;;26.81;56.58;101485.63;4894786;29;20039;-92
2023/08/21 06:10:00;;;;;;;0.20;0.20;;;;;;;26.80;58.95;101479.50;4923287;29;20124;-90
2023/08/21 06:12:25;;;;;;;0.20;0.20;;;;;;;26.93;57.76;101479.03;4910533;29;20138;-91
2023/08/21 06:14:50;;;;;;;0.20;0.20;;;;;;;27.13;56.24;101491.06;4940586;28;20457;-92
2023/08/21 06:17:16;;;;;;;0.20;0.20;;;;;;;27.22;57.12;101488.44;4889604;29;20486;-90
2023/08/21 06:19:41;;;;;;;0.10;0.10;;;;;;;26.96;56.22;101499.97;4870283;29;20088;-91
2023/08/21 06:22:07;;;;;;;0.10;0.10;;;;;;;26.60;57.80;101483.41;4875873;29;20421;-92
2023/08/21 06:24:32;;;;;;;0.20;0.20;;;;;;;26.58;58.27;101486.22;4909083;29;20035;-92
2023/08/21 06:27:00;;;;;;;0.13;0.13;;;;;;;26.48;58.27;101448.34;5069013;23;20040;-92
2023/08/21 06:29:25;;;;;;;0.20;0.20;;;;;;;26.90;57.33;101490.00;4909346;29;20034;-88
2023/08/21 06:31:50;;;;;;;0.20;0.20;;;;;;;26.75;57.57;101487.13;4907149;29;20430;-89
2023/08/21 06:34:16;;;;;;;0.20;0.20;;;;;;;26.74;58.11;101492.56;4901159;29;20036;-87
2023/08/21 06:36:41;;;;;;;0.10;0.10;;;;;;;26.98;57.59;101482.06;4886486;29;20080;-90
2023/08/21 06:39:10;;;;;;;0.20;0.20;;;;;;;27.03;57.42;101486.91;4881865;29;20442;-92
2023/08/21 06:41:36;;;;;;;0.20;0.20;;;;;;;27.23;56.81;101477.66;4906182;29;20038;-91
2023/08/21 06:44:04;;;;;;;0.20;0.20;;;;;;;27.28;56.84;101493.13;4914765;29;20031;-92
2023/08/21 06:46:29;;;;;;;0.10;0.10;;;;;;;27.43;56.74;101500.28;4916597;29;20051;-92
2023/08/21 06:48:56;;;;;;;0.20;0.20;;;;;;;27.50;56.66;101487.16;4924800;29;20050;-90
2023/08/21 06:51:22;;;;;;;0.20;0.20;;;;;;;27.36;58.05;101501.09;4920737;29;20509;-91
2023/08/21 06:53:50;;;;;;;0.20;0.20;;;;;;;27.57;57.55;101500.63;4937071;29;20110;-90
2023/08/21 06:56:17;;;;;;;0.20;0.20;;;;;;;27.21;58.28;101497.41;4924728;29;20032;-92
2023/08/21 06:58:42;;;;;;;0.20;0.20;;;;;;;27.34;58.06;101498.63;4936297;29;20529;-89
2023/08/21 07:01:08;;;;;;;0.20;0.20;;;;;;;27.12;58.24;101478.78;4882367;29;20040;-87
2023/08/21 07:03:33;;;;;;;0.20;0.20;;;;;;;27.41;58.18;101493.47;4895972;29;20562;-86
2023/08/21 07:05:59;;;;;;;0.20;0.20;;;;;;;27.45;58.26;101502.78;4905971;29;20418;-92
2023/08/21 07:08:25;;;;;;;0.20;0.20;;;;;;;27.52;58.21;101485.16;4895568;29;20058;-90
2023/08/21 07:10:51;;;;;;;0.20;0.20;;;;;;;27.73;57.16;101479.41;4904449;29;20070;-91
2023/08/21 07:13:17;;;;;;;0.20;0.20;;;;;;;27.70;56.89;101483.22;4917963;29;20128;-86
2023/08/21 07:15:42;;;;;;;0.20;0.20;;;;;;;28.03;56.48;101496.53;4938387;29;20038;-86
2023/08/21 07:18:08;;;;;;;0.20;0.20;;;;;;;27.86;56.78;101481.56;4904624;29;20491;-85
2023/08/21 07:20:33;;;;;;;0.20;0.20;;;;;;;28.15;56.10;101499.66;4893076;29;20447;-91
2023/08/21 07:22:59;;;;;;;0.20;0.20;;;;;;;28.20;56.48;101489.31;4883466;29;20462;-90
2023/08/21 07:25:25;;;;;;;0.20;0.20;;;;;;;28.20;56.50;101479.50;4883791;29;20088;-91
2023/08/21 07:27:53;;;;;;;0.20;0.20;;;;;;;28.52;55.96;101493.78;4940293;29;20058;-93
2023/08/21 07:30:18;;;;;;;0.20;0.20;;;;;;;28.35;55.65;101481.53;4932515;23;20067;-91
2023/08/21 07:32:44;;;;;;;0.20;0.20;;;;;;;28.74;55.18;101486.88;4889982;28;20172;-90
2023/08/21 07:35:10;;;;;;;0.20;0.20;;;;;;;28.69;55.21;101503.34;4897680;29;20043;-89
2023/08/21 07:37:36;;;;;;;0.20;0.20;;;;;;;28.88;55.28;101498.63;4898414;28;20516;-93
2023/08/21 07:40:03;;;;;;;0.20;0.20;;;;;;;28.95;54.73;101486.31;4935782;28;20030;-92
2023/08/21 07:42:28;;;;;;;0.20;0.20;;;;;;;29.06;54.76;101491.22;4933309;28;20478;-90
2023/08/21 07:44:53;;;;;;;0.20;0.20;;;;;;;29.28;54.28;101490.41;4930932;28;20042;-90
2023/08/21 07:47:19;;;;;;;0.20;0.20;;;;;;;29.17;54.20;101487.34;4911494;29;20483;-91
2023/08/21 07:49:44;;;;;;;0.20;0.20;;;;;;;29.33;54.07;101493.41;4896321;28;20042;-88
2023/08/21 07:52:10;;;;;;;0.20;0.20;;;;;;;29.47;53.54;101490.97;4929959;28;20087;-92
2023/08/21 07:54:35;;;;;;;0.20;0.20;;;;;;;29.41;53.28;101480.03;4929936;29;20056;-86
2023/08/21 07:57:08;;;;;;;0.20;0.20;;;;;;;29.68;52.80;101492.00;4920959;28;20038;-92
2023/08/21 07:59:33;;;;;;;0.20;0.20;;;;;;;29.73;52.52;101472.81;4944751;29;20039;-87
2023/08/21 08:02:00;;;;;;;0.20;0.20;;;;;;;29.72;52.70;101475.66;4933970;29;20024;-89
2023/08/21 08:04:26;;;;;;;0.20;0.20;;;;;;;30.01;52.06;101485.56;4933862;28;20046;-86
2023/08/21 08:06:52;;;;;;;0.20;0.20;;;;;;;30.08;51.86;101483.84;4941744;28;20428;-92
2023/08/21 08:09:19;;;;;;;0.20;0.20;;;;;;;30.05;51.87;101446.81;4965286;28;20047;-89
2023/08/21 08:11:44;;;;;;;0.20;0.20;;;;;;;30.32;51.45;101458.75;4931377;28;20020;-91
2023/08/21 08:14:10;;;;;;;0.20;0.20;;;;;;;30.40;51.12;101459.47;4919193;28;20085;-90
2023/08/21 08:16:35;;;;;;;0.20;0.20;;;;;;;30.70;50.24;101460.31;4954644;28;20023;-93
2023/08/21 08:19:01;;;;;;;0.20;0.20;;;;;;;30.89;50.22;101469.56;4933406;28;20094;-87
2023/08/21 08:21:27;;;;;;;0.20;0.20;;;;;;;31.06;49.71;101468.31;4926955;29;20091;-90
2023/08/21 08:23:53;;;;;;;0.20;0.20;;;;;;;31.21;48.98;101459.44;4898190;28;20019;-88
2023/08/21 08:26:18;;;;;;;0.20;0.20;;;;;;;30.85;49.28;101425.53;4899795;29;20561;-89
2023/08/21 08:28:44;;;;;;;0.20;0.20;;;;;;;31.47;48.54;101459.72;4915805;29;20036;-90
2023/08/21 08:31:16;;;;;;;0.20;0.20;;;;;;;31.51;48.13;101463.66;4901173;29;20038;-88
2023/08/21 08:33:42;;;;;;;0.20;0.20;;;;;;;31.57;48.22;101452.19;4914685;28;20023;-88
2023/08/21 08:36:08;;;;;;;0.20;0.20;;;;;;;31.87;47.50;101460.91;4939690;28;20027;-90
2023/08/21 08:38:34;;;;;;;0.20;0.20;;;;;;;31.84;48.10;101453.22;4925184;28;20058;-89
2023/08/21 08:41:00;;;;;;;0.20;0.20;;;;;;;32.13;46.92;101452.19;4959876;28;20026;-83
2023/08/21 08:43:26;;;;;;;0.20;0.20;;;;;;;32.04;46.82;101437.31;4928568;28;20110;-91
2023/08/21 08:45:51;;;;;;;0.20;0.20;;;;;;;32.16;47.21;101443.78;4925630;28;20469;-91
2023/08/21 08:48:17;;;;;;;0.20;0.20;;;;;;;32.37;46.84;101442.91;4925280;29;20123;-86
2023/08/21 08:50:42;;;;;;;0.20;0.20;;;;;;;32.57;46.48;101447.53;4893491;29;20043;-88
2023/08/21 08:53:08;;;;;;;0.20;0.20;;;;;;;32.78;45.65;101418.72;4908179;29;20035;-89
2023/08/21 08:55:33;;;;;;;0.20;0.20;;;;;;;33.13;45.20;101436.56;4921107;29;20103;-87
2023/08/21 08:57:59;;;;;;;0.20;0.20;;;;;;;33.33;44.56;101438.25;4921523;29;20524;-86
2023/08/21 09:00:25;;;;;;;0.20;0.20;;;;;;;33.56;44.58;101448.59;4922620;29;20529;-92
2023/08/21 09:02:51;;;;;;;0.20;0.20;;;;;;;33.74;43.73;101442.59;4915314;28;20485;-92
2023/08/21 09:05:16;;;;;;;0.20;0.20;;;;;;;33.57;43.15;101442.19;4912066;28;20074;-87
2023/08/21 09:07:42;;;;;;;0.20;0.20;;;;;;;33.46;43.71;101439.31;4920606;28;20035;-87
2023/08/21 09:10:17;;;;;;;0.20;0.20;;;;;;;33.45;43.79;101421.56;4910863;28;20517;-92
2023/08/21 09:12:45;;;;;;;0.30;0.30;;;;;;;33.42;43.82;101433.53;4933196;28;20055;-91
2023/08/21 09:15:11;;;;;;;0.30;0.30;;;;;;;33.49;43.44;101420.94;4939784;28;20027;-92
2023/08/21 09:17:36;;;;;;;0.20;0.20;;;;;;;33.68;43.82;101419.28;4941383;28;20049;-85
2023/08/21 09:20:06;;;;;;;0.20;0.20;;;;;;;33.91;42.98;101424.22;4926917;28;20051;-86
2023/08/21 09:22:31;;;;;;;0.20;0.20;;;;;;;34.16;42.29;101414.47;4924858;28;20046;-87
2023/08/21 09:25:07;;;;;;;0.20;0.20;;;;;;;34.22;41.00;101407.44;4940717;28;20031;-87
2023/08/21 09:27:35;;;;;;;0.20;0.20;;;;;;;34.17;41.08;101391.13;4908716;29;20426;-93
2023/08/21 09:30:04;;;;;;;0.20;0.20;;;;;;;34.55;39.39;101410.00;4931325;29;20533;-92
2023/08/21 09:32:30;;;;;;;0.20;0.20;;;;;;;34.67;38.00;101402.91;4923626;29;20062;-93
2023/08/21 09:34:56;;;;;;;0.30;0.30;;;;;;;34.81;39.84;101403.66;4891298;29;20036;-86
2023/08/21 09:37:21;;;;;;;0.20;0.20;;;;;;;34.72;39.49;101404.97;4923520;29;20060;-90
2023/08/21 09:39:47;;;;;;;0.20;0.20;;;;;;;34.97;38.39;101403.16;4878909;28;20498;-91
2023/08/21 09:42:13;;;;;;;0.20;0.20;;;;;;;34.86;38.15;101395.75;4944374;28;20531;-89
2023/08/21 09:44:39;;;;;;;0.30;0.30;;;;;;;34.86;37.85;101385.00;4931013;28;20027;-89
2023/08/21 09:47:10;;;;;;;0.30;0.30;;;;;;;35.24;38.09;101394.91;4929893;28;20548;-88
2023/08/21 09:49:38;;;;;;;0.20;0.20;;;;;;;35.54;36.74;101387.81;4959392;28;20031;-92
2023/08/21 09:52:05;;;;;;;0.30;0.30;;;;;;;35.79;36.18;101384.25;4925597;28;20062;-88
2023/08/21 09:54:31;;;;;;;0.25;0.25;;;;;;;35.96;37.74;101369.19;4940341;28;20109;-84
2023/08/21 09:56:56;;;;;;;0.20;0.20;;;;;;;36.14;36.76;101371.06;4917627;28;20042;-93
2023/08/21 09:59:21;;;;;;;0.30;0.30;;;;;;;36.25;34.67;101370.28;4928654;29;20035;-92
2023/08/21 10:01:47;;;;;;;0.30;0.30;;;;;;;36.09;33.14;101344.00;4920112;29;20032;-93
2023/08/21 10:04:13;;;;;;;0.20;0.20;;;;;;;36.40;32.47;101365.38;4903224;29;20039;-93
2023/08/21 10:06:38;;;;;;;0.30;0.30;;;;;;;36.66;30.98;101366.84;4921862;29;20032;-91
2023/08/21 10:09:04;;;;;;;0.20;0.20;;;;;;;36.67;30.24;101365.78;4920142;29;20028;-93
2023/08/21 10:11:29;;;;;;;0.30;0.30;;;;;;;36.73;30.19;101361.38;4906673;29;20091;-92
2023/08/21 10:13:55;;;;;;;0.30;0.30;;;;;;;36.86;31.89;101363.88;4887521;29;20039;-89
2023/08/21 10:16:21;;;;;;;0.30;0.30;;;;;;;36.95;30.45;101369.75;4902270;29;20032;-87
2023/08/21 10:18:46;;;;;;;0.30;0.30;;;;;;;36.92;30.30;101357.56;4919771;28;20032;-88
2023/08/21 10:21:19;;;;;;;0.30;0.30;;;;;;;37.03;30.54;101359.47;4905060;28;20031;-85
2023/08/21 10:23:48;;;;;;;0.28;0.28;;;;;;;37.11;29.78;101349.38;4920668;28;20114;-85
2023/08/21 10:26:13;;;;;;;0.30;0.30;;;;;;;37.29;30.76;101350.13;4940733;28;20050;-93
2023/08/21 10:28:55;;;;;;;0.30;0.30;;;;;;;37.39;30.90;101333.34;4925200;29;20131;-86
2023/08/21 10:31:38;;;;;;;0.30;0.30;;;;;;;37.45;31.04;101345.06;4935245;29;20024;-87
2023/08/21 10:34:22;;;;;;;0.30;0.30;;;;;;;37.48;29.51;101339.22;4934841;29;20063;-93
2023/08/21 10:37:03;;;;;;;0.30;0.30;;;;;;;37.48;30.48;101344.63;4917455;29;20067;-90
2023/08/21 10:39:31;;;;;;;0.20;0.20;;;;;;;37.38;30.48;101334.41;4890220;29;20048;-93
2023/08/21 10:41:56;;;;;;;0.30;0.30;;;;;;;37.40;29.16;101337.69;4921566;29;20405;-85
2023/08/21 10:44:48;;;;;;;0.30;0.30;;;;;;;37.51;29.17;101339.56;4936793;29;20505;-87
2023/08/21 10:47:21;;;;;;;0.30;0.30;;;;;;;37.60;29.15;101337.31;4951803;28;20027;-87
2023/08/21 10:50:06;;;;;;;0.30;0.30;;;;;;;37.61;29.52;101333.56;4936821;29;20087;-92
2023/08/21 10:52:36;;;;;;;0.30;0.30;;;;;;;37.61;30.11;101338.97;4947541;28;20039;-87
2023/08/21 10:55:03;;;;;;;0.30;0.30;;;;;;;37.68;29.98;101328.03;4929705;28;20493;-88
2023/08/21 10:57:29;;;;;;;0.30;0.30;;;;;;;37.66;30.58;101322.03;4930073;29;20058;-92
2023/08/21 11:00:04;;;;;;;0.30;0.30;;;;;;;37.82;30.07;101319.47;4907486;28;20031;-94
2023/08/21 11:02:30;;;;;;;0.30;0.30;;;;;;;38.00;29.57;101314.94;4977058;28;20050;-92
2023/08/21 11:04:55;;;;;;;0.30;0.30;;;;;;;38.21;28.93;101316.16;4941002;28;20023;-87
2023/08/21 11:07:21;;;;;;;0.30;0.30;;;;;;;38.40;28.58;101317.63;4954822;28;20505;-92
2023/08/21 11:09:47;;;;;;;0.30;0.30;;;;;;;38.29;28.55;101303.13;4940341;28;20134;-86
2023/08/21 11:12:14;;;;;;;0.30;0.30;;;;;;;38.40;29.09;101315.75;4957183;28;20390;-88
2023/08/21 11:14:40;;;;;;;0.30;0.30;;;;;;;38.44;29.61;101300.66;4955054;28;20022;-92
2023/08/21 11:17:06;;;;;;;0.38;0.38;;;;;;;38.65;28.29;101322.66;4918699;28;20027;-87
2023/08/21 11:19:32;;;;;;;0.30;0.30;;;;;;;38.73;28.17;101323.09;4923016;28;20046;-90
2023/08/21 11:22:05;;;;;;;0.30;0.30;;;;;;;38.87;28.52;101317.38;4939833;28;20031;-88